Archival Weather

Chicago O'Hare International

Chicago, Illinois (KORD)

Report from: Sunday, December 25, 2022 9:51 PM CST
Current time: Friday, June 14, 2024 8:41 AM CDT

Current weather – Weather history – Daily summaries
Weather forecast

Temperature-10.0°C (14.0°F)
Wind chill-16.7°C (2.0°F)
Dew point-16.1°C (3.0°F)
Winds 8 kts (4.1 m/s, 9.2 mph) West-Southwest (240°)
Visibility10 mi. (16.1 km)
Clouds Few clouds 11,000 ft. (3,353 m)
Ceiling: Broken clouds 20,000 ft. (6,096 m)
Altimeter30.06 in.Hg (1018 mB)
Relative humidity61 %
Density altitude-3,308 ft. (-1,008 m)
Sea-level pressure102.0 kPa (1020 mB, 30.11 in.Hg)
Remarks System requires maintenance
Automated weather observing station with precipitation discriminator
Flight conditions Visual Meteorological Conditions
Raw dataKORD 260351Z 24008KT 10SM FEW110 BKN200 M10/M16 A3006 RMK AO2 SLP195 T11001161 $
An error has occurred. This application may no longer respond until reloaded. Reload 🗙